createdAt,value
2022-10-29T00:00:22.490Z,100557.44
2022-10-29T00:00:54.431Z,100561.94
2022-10-29T00:01:26.027Z,100567.00
2022-10-29T00:01:57.667Z,100565.03
2022-10-29T00:02:29.343Z,100566.03
2022-10-29T00:03:00.995Z,100572.50
2022-10-29T00:03:32.584Z,100566.03
2022-10-29T00:04:04.276Z,100567.56
2022-10-29T00:04:35.914Z,100567.84
2022-10-29T00:05:07.737Z,100571.38
2022-10-29T00:05:39.224Z,100569.69
2022-10-29T00:06:11.312Z,100572.06
2022-10-29T00:06:42.834Z,100572.38
2022-10-29T00:07:14.451Z,100572.38
2022-10-29T00:07:45.980Z,100567.00
2022-10-29T00:08:17.466Z,100574.75
2022-10-29T00:08:48.977Z,100572.06
2022-10-29T00:09:20.583Z,100569.25
2022-10-29T00:09:52.063Z,100572.91
2022-10-29T00:10:23.655Z,100579.00
2022-10-29T00:10:55.182Z,100579.81
2022-10-29T00:11:26.750Z,100581.81
2022-10-29T00:11:58.292Z,100580.66
2022-10-29T00:12:29.827Z,100580.66
2022-10-29T00:13:01.860Z,100571.78
2022-10-29T00:13:33.494Z,100571.78
2022-10-29T00:14:05.069Z,100576.72
2022-10-29T00:14:36.663Z,100577.84
2022-10-29T00:15:08.537Z,100576.72
2022-10-29T00:15:42.926Z,100576.88
2022-10-29T00:16:17.851Z,100576.00
2022-10-29T00:16:49.291Z,100569.69
2022-10-29T00:17:20.792Z,100575.03
2022-10-29T00:17:52.379Z,100575.44
2022-10-29T00:18:24.053Z,100569.81
2022-10-29T00:18:55.911Z,100567.13
2022-10-29T00:19:27.514Z,100570.38
2022-10-29T00:19:59.118Z,100573.50
2022-10-29T00:20:30.690Z,100570.50
2022-10-29T00:21:05.797Z,100578.41
2022-10-29T00:21:37.392Z,100578.69
2022-10-29T00:22:08.885Z,100575.88
2022-10-29T00:22:40.433Z,100574.50
2022-10-29T00:23:11.957Z,100572.50
2022-10-29T00:23:43.454Z,100574.50
2022-10-29T00:24:15.026Z,100572.66
2022-10-29T00:24:46.713Z,100566.31
2022-10-29T00:25:18.220Z,100567.28
2022-10-29T00:25:49.792Z,100562.63
2022-10-29T00:26:21.421Z,100568.16
2022-10-29T00:26:52.981Z,100561.94
2022-10-29T00:27:24.549Z,100567.97
2022-10-29T00:27:56.484Z,100562.50
2022-10-29T00:28:28.174Z,100570.38
2022-10-29T00:28:59.676Z,100566.16
2022-10-29T00:29:31.296Z,100570.66
2022-10-29T00:30:02.858Z,100569.00
2022-10-29T00:30:35.076Z,100578.56
2022-10-29T00:31:10.070Z,100583.06
2022-10-29T00:31:41.615Z,100580.81
2022-10-29T00:32:13.302Z,100577.31
2022-10-29T00:32:44.864Z,100579.56
2022-10-29T00:33:16.466Z,100579.69
2022-10-29T00:33:48.031Z,100572.38
2022-10-29T00:34:19.596Z,100574.06
2022-10-29T00:34:51.133Z,100574.75
2022-10-29T00:35:22.696Z,100572.63
2022-10-29T00:35:55.038Z,100580.81
2022-10-29T00:36:27.379Z,100580.13
2022-10-29T00:36:58.889Z,100578.69
2022-10-29T00:37:30.514Z,100583.06
2022-10-29T00:38:02.028Z,100582.09
2022-10-29T00:38:33.974Z,100581.81
2022-10-29T00:39:05.465Z,100577.44
2022-10-29T00:39:36.903Z,100578.28
2022-10-29T00:40:08.931Z,100575.84
2022-10-29T00:40:40.710Z,100579.41
2022-10-29T00:41:13.324Z,100571.50
2022-10-29T00:41:44.940Z,100576.00
2022-10-29T00:42:16.595Z,100578.53
2022-10-29T00:42:48.217Z,100571.66
2022-10-29T00:43:20.917Z,100575.31
2022-10-29T00:43:53.198Z,100570.09
2022-10-29T00:44:25.383Z,100573.06
2022-10-29T00:44:56.869Z,100580.94
2022-10-29T00:45:28.354Z,100579.00
2022-10-29T00:46:00.340Z,100580.53
2022-10-29T00:46:32.708Z,100570.09
2022-10-29T00:47:12.485Z,100578.84
2022-10-29T00:47:44.007Z,100577.16
2022-10-29T00:48:15.562Z,100584.22
2022-10-29T00:48:47.299Z,100584.22
2022-10-29T00:49:18.798Z,100582.66
2022-10-29T00:49:51.760Z,100581.66
2022-10-29T00:50:23.354Z,100585.19
2022-10-29T00:50:54.875Z,100590.53
2022-10-29T00:51:26.459Z,100583.47
2022-10-29T00:51:57.947Z,100591.50
2022-10-29T00:52:30.086Z,100587.44
2022-10-29T00:53:01.651Z,100592.06
2022-10-29T00:53:33.637Z,100585.88
2022-10-29T00:54:06.505Z,100599.41
2022-10-29T00:54:38.953Z,100589.72
2022-10-29T00:55:10.521Z,100575.31
2022-10-29T00:55:42.006Z,100581.09
2022-10-29T00:56:13.601Z,100593.22
2022-10-29T00:56:49.013Z,100579.81
2022-10-29T00:57:26.653Z,100582.22
2022-10-29T00:57:58.582Z,100581.34
2022-10-29T00:58:30.484Z,100583.06
2022-10-29T00:59:02.142Z,100585.03
2022-10-29T00:59:33.917Z,100581.06
2022-10-29T01:00:05.656Z,100583.88
2022-10-29T01:00:37.466Z,100580.38
2022-10-29T01:01:09.093Z,100586.72
2022-10-29T01:01:40.744Z,100575.84
2022-10-29T01:02:12.579Z,100578.53
2022-10-29T01:02:44.307Z,100576.59
2022-10-29T01:03:16.003Z,100580.25
2022-10-29T01:03:47.566Z,100581.66
2022-10-29T01:04:19.382Z,100583.63
2022-10-29T01:04:51.054Z,100577.41
2022-10-29T01:05:23.467Z,100574.22
2022-10-29T01:05:54.935Z,100578.56
2022-10-29T01:06:26.502Z,100577.72
2022-10-29T01:06:58.065Z,100576.19
2022-10-29T01:07:29.535Z,100583.88
2022-10-29T01:08:01.168Z,100576.88
2022-10-29T01:08:32.662Z,100575.03
2022-10-29T01:09:04.292Z,100574.03
2022-10-29T01:09:35.981Z,100568.13
2022-10-29T01:10:07.716Z,100572.50
2022-10-29T01:10:41.828Z,100565.88
2022-10-29T01:11:13.327Z,100568.53
2022-10-29T01:11:57.158Z,100563.06
2022-10-29T01:12:37.255Z,100561.94
2022-10-29T01:13:27.301Z,100562.81
2022-10-29T01:14:10.525Z,100561.38
2022-10-29T01:14:45.149Z,100557.84
2022-10-29T01:15:39.565Z,100562.34
2022-10-29T01:16:14.494Z,100556.59
2022-10-29T01:16:48.718Z,100559.94
2022-10-29T01:17:20.165Z,100559.81
2022-10-29T01:18:00.679Z,100560.53
2022-10-29T01:18:40.272Z,100559.66
2022-10-29T01:19:35.756Z,100560.53
2022-10-29T01:20:25.632Z,100561.38
2022-10-29T01:21:15.336Z,100564.75
2022-10-29T01:21:51.646Z,100557.13
2022-10-29T01:22:31.424Z,100556.31
2022-10-29T01:23:02.942Z,100558.00
2022-10-29T01:23:54.701Z,100556.00
2022-10-29T01:24:34.883Z,100561.22
2022-10-29T01:25:09.160Z,100563.75
2022-10-29T01:25:40.637Z,100564.75
2022-10-29T01:26:21.172Z,100558.56
2022-10-29T01:26:52.674Z,100556.72
2022-10-29T01:27:26.731Z,100561.09
2022-10-29T01:28:04.047Z,100560.25
2022-10-29T01:28:38.607Z,100549.69
2022-10-29T01:29:18.771Z,100558.25
2022-10-29T01:29:55.661Z,100550.22
2022-10-29T01:30:29.771Z,100552.91
2022-10-29T01:31:06.302Z,100549.53
2022-10-29T01:31:43.200Z,100550.38
2022-10-29T01:32:15.487Z,100546.72
2022-10-29T01:32:52.688Z,100558.56
2022-10-29T01:33:33.277Z,100549.41
2022-10-29T01:34:17.367Z,100558.25
2022-10-29T01:35:03.147Z,100551.75
2022-10-29T01:35:53.037Z,100549.41
2022-10-29T01:36:24.533Z,100550.38
2022-10-29T01:37:00.837Z,100550.66
2022-10-29T01:37:50.638Z,100553.19
2022-10-29T01:38:29.539Z,100559.38
2022-10-29T01:39:09.707Z,100559.66
2022-10-29T01:39:45.024Z,100562.78
2022-10-29T01:40:16.615Z,100561.50
2022-10-29T01:40:49.911Z,100553.75
2022-10-29T01:41:27.711Z,100556.28
2022-10-29T01:42:18.672Z,100555.44
2022-10-29T01:42:54.346Z,100548.09
2022-10-29T01:43:28.573Z,100555.44
2022-10-29T01:44:18.372Z,100544.72
2022-10-29T01:44:51.254Z,100548.09
2022-10-29T01:45:26.943Z,100543.03
2022-10-29T01:46:01.786Z,100555.72
2022-10-29T01:46:35.993Z,100543.16
2022-10-29T01:47:14.500Z,100547.69
2022-10-29T01:47:47.615Z,100543.88
2022-10-29T01:48:22.502Z,100546.56
2022-10-29T01:48:55.215Z,100543.88
2022-10-29T01:49:28.733Z,100542.16
2022-10-29T01:50:00.777Z,100541.19
2022-10-29T01:50:32.340Z,100540.47
2022-10-29T01:51:05.014Z,100540.47
2022-10-29T01:51:36.608Z,100548.66
2022-10-29T01:52:09.095Z,100541.63
2022-10-29T01:52:40.657Z,100536.28
2022-10-29T01:53:12.158Z,100537.94
2022-10-29T01:53:43.709Z,100537.94
2022-10-29T01:54:15.285Z,100527.09
2022-10-29T01:54:46.961Z,100541.47
2022-10-29T01:55:23.043Z,100533.75
2022-10-29T01:55:54.609Z,100534.72
2022-10-29T01:56:26.134Z,100536.41
2022-10-29T01:56:57.979Z,100536.56
2022-10-29T01:57:33.391Z,100539.09
2022-10-29T01:58:05.298Z,100538.94
2022-10-29T01:58:36.834Z,100538.09
2022-10-29T01:59:18.172Z,100538.81
2022-10-29T02:00:11.047Z,100537.09
2022-10-29T02:00:47.347Z,100536.28
2022-10-29T02:01:37.234Z,100539.94
2022-10-29T02:02:37.949Z,100538.22
2022-10-29T02:03:13.337Z,100533.00
2022-10-29T02:03:53.984Z,100528.53
2022-10-29T02:04:44.365Z,100530.34
2022-10-29T02:05:31.050Z,100528.66
2022-10-29T02:06:21.276Z,100517.81
2022-10-29T02:07:00.005Z,100520.63
2022-10-29T02:07:31.590Z,100534.03
2022-10-29T02:08:07.237Z,100527.66
2022-10-29T02:08:44.757Z,100535.69
2022-10-29T02:09:23.827Z,100527.81
2022-10-29T02:10:00.159Z,100523.47
2022-10-29T02:10:33.070Z,100528.94
2022-10-29T02:11:22.823Z,100530.66
2022-10-29T02:12:12.770Z,100528.94
2022-10-29T02:12:48.338Z,100527.13
2022-10-29T02:13:20.099Z,100522.75
2022-10-29T02:13:56.894Z,100524.72
2022-10-29T02:14:30.392Z,100522.03
2022-10-29T02:15:05.375Z,100517.41
2022-10-29T02:15:36.983Z,100520.22
2022-10-29T02:16:08.577Z,100517.69
2022-10-29T02:16:40.185Z,100506.84
2022-10-29T02:17:11.721Z,100504.16
2022-10-29T02:17:43.327Z,100505.00
2022-10-29T02:18:14.841Z,100505.84
2022-10-29T02:18:46.865Z,100502.47
2022-10-29T02:19:18.372Z,100498.81
2022-10-29T02:19:49.882Z,100494.28
2022-10-29T02:20:21.498Z,100498.81
2022-10-29T02:20:53.149Z,100494.44
2022-10-29T02:21:24.773Z,100498.81
2022-10-29T02:21:56.392Z,100495.13
2022-10-29T02:22:27.923Z,100495.41
2022-10-29T02:22:59.456Z,100493.59
2022-10-29T02:23:30.935Z,100490.91
2022-10-29T02:24:02.500Z,100496.41
2022-10-29T02:24:34.017Z,100493.59
2022-10-29T02:25:06.122Z,100490.06
2022-10-29T02:25:37.880Z,100492.59
2022-10-29T02:26:09.546Z,100498.81
2022-10-29T02:26:41.118Z,100490.91
2022-10-29T02:27:12.671Z,100487.22
2022-10-29T02:27:44.179Z,100494.28
2022-10-29T02:28:15.750Z,100499.09
2022-10-29T02:28:47.354Z,100497.41
2022-10-29T02:29:19.021Z,100502.47
2022-10-29T02:29:50.529Z,100496.13
2022-10-29T02:30:22.089Z,100493.88
2022-10-29T02:30:53.648Z,100494.03
2022-10-29T02:31:25.211Z,100504.59
2022-10-29T02:31:56.807Z,100499.25
2022-10-29T02:32:28.287Z,100495.69
2022-10-29T02:33:00.091Z,100497.41
2022-10-29T02:33:31.891Z,100497.41
2022-10-29T02:34:03.508Z,100502.75
2022-10-29T02:34:35.143Z,100495.56
2022-10-29T02:35:06.808Z,100504.75
2022-10-29T02:35:38.366Z,100503.03
2022-10-29T02:36:10.035Z,100511.75
2022-10-29T02:36:41.504Z,100508.41
2022-10-29T02:37:13.014Z,100509.25
2022-10-29T02:37:44.621Z,100512.06
2022-10-29T02:38:16.186Z,100510.09
2022-10-29T02:38:47.681Z,100508.41
2022-10-29T02:39:19.264Z,100512.06
2022-10-29T02:39:50.838Z,100512.06
2022-10-29T02:40:22.360Z,100510.38
2022-10-29T02:40:53.893Z,100514.88
2022-10-29T02:41:25.439Z,100502.34
2022-10-29T02:41:56.960Z,100505.03
2022-10-29T02:42:28.482Z,100516.69
2022-10-29T02:43:00.030Z,100512.34
2022-10-29T02:43:31.527Z,100510.50
2022-10-29T02:44:03.023Z,100512.34
2022-10-29T02:44:34.568Z,100512.34
2022-10-29T02:45:06.195Z,100514.00
2022-10-29T02:45:37.712Z,100509.41
2022-10-29T02:46:15.041Z,100508.66
2022-10-29T02:46:46.661Z,100506.13
2022-10-29T02:47:18.269Z,100503.28
2022-10-29T02:47:49.794Z,100506.13
2022-10-29T02:48:21.314Z,100505.97
2022-10-29T02:48:52.827Z,100513.06
2022-10-29T02:49:24.341Z,100508.66
2022-10-29T02:49:55.863Z,100505.97
2022-10-29T02:50:27.421Z,100506.97
2022-10-29T02:50:58.941Z,100505.28
2022-10-29T02:51:30.478Z,100492.72
2022-10-29T02:52:02.121Z,100500.63
2022-10-29T02:52:33.696Z,100493.44
2022-10-29T02:53:05.295Z,100484.44
2022-10-29T02:53:36.923Z,100499.66
2022-10-29T02:54:08.398Z,100488.38
2022-10-29T02:54:39.854Z,100499.09
2022-10-29T02:55:11.380Z,100491.88
2022-10-29T02:55:42.965Z,100488.25
2022-10-29T02:56:14.527Z,100489.91
2022-10-29T02:56:46.081Z,100494.44
2022-10-29T02:57:17.664Z,100490.06
2022-10-29T02:57:49.218Z,100491.75
2022-10-29T02:58:53.381Z,100500.75
2022-10-29T02:59:24.862Z,100488.38
2022-10-29T02:59:56.440Z,100488.38
2022-10-29T03:00:27.936Z,100489.22
2022-10-29T03:00:59.559Z,100489.22
2022-10-29T03:01:31.211Z,100491.88
2022-10-29T03:02:02.860Z,100491.19
2022-10-29T03:02:34.515Z,100489.22
2022-10-29T03:03:06.239Z,100490.19
2022-10-29T03:03:37.816Z,100478.50
2022-10-29T03:04:10.474Z,100480.50
2022-10-29T03:04:42.003Z,100484.97
2022-10-29T03:05:13.588Z,100484.16
2022-10-29T03:05:48.945Z,100482.31
2022-10-29T03:06:21.219Z,100486.69
2022-10-29T03:06:52.804Z,100481.47
2022-10-29T03:07:24.473Z,100494.84
2022-10-29T03:07:56.015Z,100486.97
2022-10-29T03:08:27.593Z,100488.81
2022-10-29T03:08:59.124Z,100484.44
2022-10-29T03:09:30.679Z,100486.28
2022-10-29T03:10:03.526Z,100485.59
2022-10-29T03:10:35.066Z,100482.75
2022-10-29T03:11:06.568Z,100487.09
2022-10-29T03:11:38.087Z,100486.41
2022-10-29T03:12:09.636Z,100489.78
2022-10-29T03:12:41.249Z,100486.97
2022-10-29T03:13:12.780Z,100489.78
2022-10-29T03:13:44.314Z,100483.47
2022-10-29T03:14:15.827Z,100491.50
2022-10-29T03:14:47.402Z,100476.41
2022-10-29T03:15:18.905Z,100489.94
2022-10-29T03:15:50.450Z,100483.59
2022-10-29T03:16:22.028Z,100477.41
2022-10-29T03:16:53.475Z,100487.25
2022-10-29T03:17:25.030Z,100477.41
2022-10-29T03:17:56.812Z,100478.38
2022-10-29T03:18:28.638Z,100479.09
2022-10-29T03:19:00.271Z,100480.63
2022-10-29T03:19:31.817Z,100485.44
2022-10-29T03:20:03.554Z,100492.59
2022-10-29T03:20:35.087Z,100483.75
2022-10-29T03:21:06.601Z,100488.13
2022-10-29T03:21:38.076Z,100490.94
2022-10-29T03:22:09.605Z,100491.78
2022-10-29T03:22:41.119Z,100493.34
2022-10-29T03:23:12.644Z,100487.84
2022-10-29T03:23:44.303Z,100496.97
2022-10-29T03:24:15.821Z,100492.47
2022-10-29T03:24:47.398Z,100493.63
2022-10-29T03:25:18.917Z,100492.59
2022-10-29T03:25:55.622Z,100485.44
2022-10-29T03:26:27.833Z,100488.41
2022-10-29T03:26:59.326Z,100484.03
2022-10-29T03:27:30.908Z,100485.88
2022-10-29T03:28:02.518Z,100484.03
2022-10-29T03:28:34.096Z,100486.69
2022-10-29T03:29:05.700Z,100485.88
2022-10-29T03:29:37.179Z,100484.03
2022-10-29T03:30:11.821Z,100481.34
2022-10-29T03:30:43.385Z,100488.41
2022-10-29T03:31:14.916Z,100487.41
2022-10-29T03:31:46.473Z,100486.41
2022-10-29T03:32:18.006Z,100485.59
2022-10-29T03:32:49.602Z,100492.06
2022-10-29T03:33:21.122Z,100486.56
2022-10-29T03:33:52.576Z,100486.41
2022-10-29T03:34:24.105Z,100488.13
2022-10-29T03:34:58.996Z,100486.41
2022-10-29T03:35:31.605Z,100491.09
2022-10-29T03:36:04.148Z,100492.75
2022-10-29T03:36:35.749Z,100489.38
2022-10-29T03:37:07.318Z,100497.41
2022-10-29T03:37:38.955Z,100494.03
2022-10-29T03:38:10.532Z,100491.38
2022-10-29T03:38:42.089Z,100489.38
2022-10-29T03:39:13.711Z,100485.00
2022-10-29T03:39:45.245Z,100484.16
2022-10-29T03:40:16.844Z,100484.88
2022-10-29T03:40:48.374Z,100489.66
2022-10-29T03:41:19.897Z,100489.38
2022-10-29T03:41:51.406Z,100486.69
2022-10-29T03:42:22.935Z,100483.34
2022-10-29T03:42:54.820Z,100483.34
2022-10-29T03:43:26.504Z,100492.06
2022-10-29T03:43:58.112Z,100490.06
2022-10-29T03:44:29.784Z,100489.38
2022-10-29T03:45:01.619Z,100486.69
2022-10-29T03:45:33.367Z,100494.88
2022-10-29T03:46:04.933Z,100487.84
2022-10-29T03:46:36.439Z,100488.84
2022-10-29T03:47:08.281Z,100491.38
2022-10-29T03:47:39.827Z,100494.03
2022-10-29T03:48:11.352Z,100487.69
2022-10-29T03:48:42.880Z,100487.00
2022-10-29T03:49:14.446Z,100491.38
2022-10-29T03:49:46.038Z,100484.16
2022-10-29T03:50:17.556Z,100492.19
2022-10-29T03:50:55.567Z,100492.06
2022-10-29T03:51:27.150Z,100494.03
2022-10-29T03:51:58.759Z,100486.16
2022-10-29T03:52:30.345Z,100487.00
2022-10-29T03:53:01.847Z,100486.00
2022-10-29T03:53:34.136Z,100488.69
2022-10-29T03:54:05.847Z,100487.53
2022-10-29T03:54:37.359Z,100485.00
2022-10-29T03:55:09.015Z,100485.31
2022-10-29T03:55:40.552Z,100484.59
2022-10-29T03:56:12.119Z,100481.09
2022-10-29T03:56:43.782Z,100482.66
2022-10-29T03:57:15.363Z,100487.28
2022-10-29T03:57:46.897Z,100474.63
2022-10-29T03:58:18.559Z,100481.91
2022-10-29T03:58:50.100Z,100477.56
2022-10-29T03:59:21.616Z,100478.41
2022-10-29T03:59:53.223Z,100483.63
2022-10-29T04:00:24.805Z,100474.63
2022-10-29T04:00:59.699Z,100485.47
2022-10-29T04:01:31.261Z,100485.31
2022-10-29T04:02:02.984Z,100483.63
2022-10-29T04:02:34.712Z,100485.31
2022-10-29T04:03:06.358Z,100487.00
2022-10-29T04:03:38.073Z,100481.91
2022-10-29T04:04:09.892Z,100482.78
2022-10-29T04:04:41.494Z,100483.63
2022-10-29T04:05:13.095Z,100484.44
2022-10-29T04:05:44.616Z,100485.31
2022-10-29T04:06:16.279Z,100481.63
2022-10-29T04:06:47.771Z,100487.13
2022-10-29T04:07:19.433Z,100485.59
2022-10-29T04:07:51.004Z,100482.94
2022-10-29T04:08:22.527Z,100483.75
2022-10-29T04:08:54.804Z,100480.94
2022-10-29T04:09:26.355Z,100482.78
2022-10-29T04:09:57.866Z,100486.44
2022-10-29T04:10:29.413Z,100488.97
2022-10-29T04:11:00.880Z,100488.13
2022-10-29T04:11:32.406Z,100482.94
2022-10-29T04:12:04.081Z,100486.59
2022-10-29T04:12:35.579Z,100486.44
2022-10-29T04:13:07.187Z,100487.41
2022-10-29T04:13:38.683Z,100483.91
2022-10-29T04:14:10.209Z,100487.28
2022-10-29T04:14:44.588Z,100486.88
2022-10-29T04:15:17.378Z,100483.91
2022-10-29T04:15:48.981Z,100487.56
2022-10-29T04:16:20.517Z,100491.94
2022-10-29T04:16:52.010Z,100490.09
2022-10-29T04:17:23.571Z,100486.59
2022-10-29T04:17:55.353Z,100486.59
2022-10-29T04:18:27.101Z,100483.91
2022-10-29T04:18:58.660Z,100485.75
2022-10-29T04:19:30.201Z,100485.88
2022-10-29T04:20:01.776Z,100485.88
2022-10-29T04:21:03.095Z,100481.38
2022-10-29T04:23:25.531Z,100483.91
2022-10-29T04:24:28.956Z,100487.56
2022-10-29T04:24:28.957Z,100482.94
2022-10-29T04:28:17.567Z,100483.91
2022-10-29T04:28:42.536Z,100473.47
2022-10-29T04:29:09.734Z,100478.84
2022-10-29T04:29:41.339Z,100482.19
2022-10-29T04:30:45.479Z,100477.88
2022-10-29T04:31:17.105Z,100478.84
2022-10-29T04:31:48.801Z,100480.25
2022-10-29T04:32:20.297Z,100477.72
2022-10-29T04:32:52.104Z,100475.19
2022-10-29T04:33:23.696Z,100475.19
2022-10-29T04:33:55.198Z,100470.66
2022-10-29T04:34:26.821Z,100470.53
2022-10-29T04:34:58.336Z,100475.19
2022-10-29T04:35:29.871Z,100468.13
2022-10-29T04:36:01.381Z,100470.94
2022-10-29T04:36:33.060Z,100463.78
2022-10-29T04:37:04.541Z,100465.31
2022-10-29T04:37:36.138Z,100461.94
2022-10-29T04:38:08.325Z,100461.81
2022-10-29T04:38:39.838Z,100461.81
2022-10-29T04:39:11.385Z,100453.63
2022-10-29T04:39:42.888Z,100462.78
2022-10-29T04:40:14.625Z,100456.75
2022-10-29T04:40:46.180Z,100460.25
2022-10-29T04:41:17.727Z,100461.25
2022-10-29T04:41:49.316Z,100459.56
2022-10-29T04:42:20.929Z,100466.28
2022-10-29T04:42:52.567Z,100457.56
2022-10-29T04:43:24.166Z,100451.25
2022-10-29T04:43:55.709Z,100449.53
2022-10-29T04:44:27.216Z,100444.34
2022-10-29T04:44:58.715Z,100448.56
2022-10-29T04:45:30.357Z,100441.38
2022-10-29T04:46:01.948Z,100442.22
2022-10-29T04:46:33.534Z,100439.38
2022-10-29T04:47:05.123Z,100446.72
2022-10-29T04:47:36.642Z,100447.88
2022-10-29T04:48:08.218Z,100446.88
2022-10-29T04:48:39.863Z,100446.88
2022-10-29T04:49:11.560Z,100455.03
2022-10-29T04:49:43.850Z,100460.25
2022-10-29T04:50:15.471Z,100455.03
2022-10-29T04:50:46.986Z,100454.06
2022-10-29T04:51:21.988Z,100454.06
2022-10-29T04:51:53.585Z,100448.72
2022-10-29T04:52:25.222Z,100458.25
2022-10-29T04:52:59.932Z,100449.53
2022-10-29T04:53:31.475Z,100449.53
2022-10-29T04:54:02.991Z,100448.72
2022-10-29T04:54:34.510Z,100444.88
2022-10-29T04:55:06.242Z,100442.38
2022-10-29T04:55:38.066Z,100448.84
2022-10-29T04:56:09.856Z,100449.53
2022-10-29T04:56:41.503Z,100450.41
2022-10-29T04:57:13.007Z,100444.34
2022-10-29T04:57:49.105Z,100454.34
2022-10-29T04:58:20.528Z,100456.03
2022-10-29T04:58:52.236Z,100448.72
2022-10-29T04:59:23.714Z,100451.38
2022-10-29T04:59:55.308Z,100446.19
2022-10-29T05:00:26.910Z,100446.31
2022-10-29T05:01:01.911Z,100447.00
2022-10-29T05:01:33.612Z,100455.03
2022-10-29T05:02:05.215Z,100460.38
2022-10-29T05:02:36.768Z,100459.28
2022-10-29T05:03:08.392Z,100460.25
2022-10-29T05:03:39.948Z,100463.06
2022-10-29T05:04:11.472Z,100468.13
2022-10-29T05:04:43.028Z,100460.38
2022-10-29T05:05:14.663Z,100463.94
2022-10-29T05:05:46.235Z,100465.47
2022-10-29T05:06:17.761Z,100456.88
2022-10-29T05:06:49.425Z,100466.59
2022-10-29T05:07:20.991Z,100462.22
2022-10-29T05:08:01.093Z,100468.41
2022-10-29T05:08:32.677Z,100459.69
2022-10-29T05:09:04.245Z,100459.84
2022-10-29T05:09:35.777Z,100459.69
2022-10-29T05:10:07.531Z,100458.88
2022-10-29T05:10:39.188Z,100458.00
2022-10-29T05:11:10.733Z,100453.66
2022-10-29T05:11:42.259Z,100445.34
2022-10-29T05:12:13.843Z,100440.13
2022-10-29T05:12:45.402Z,100438.28
2022-10-29T05:13:16.988Z,100426.91
2022-10-29T05:13:48.619Z,100429.56
2022-10-29T05:14:20.101Z,100424.06
2022-10-29T05:14:51.612Z,100422.94
2022-10-29T05:15:23.194Z,100417.72
2022-10-29T05:15:54.762Z,100422.09
2022-10-29T05:16:26.353Z,100424.63
2022-10-29T05:16:57.963Z,100426.31
2022-10-29T05:17:29.539Z,100432.66
2022-10-29T05:18:01.122Z,100425.59
2022-10-29T05:18:32.621Z,100432.66
2022-10-29T05:19:04.211Z,100427.31
2022-10-29T05:19:35.718Z,100421.25
2022-10-29T05:20:07.386Z,100420.41
2022-10-29T05:20:38.999Z,100422.94
2022-10-29T05:21:10.544Z,100414.91
2022-10-29T05:21:42.081Z,100420.09
2022-10-29T05:22:13.648Z,100421.94
2022-10-29T05:22:45.220Z,100415.75
2022-10-29T05:23:16.800Z,100413.09
2022-10-29T05:23:48.374Z,100413.91
2022-10-29T05:24:19.867Z,100407.59
2022-10-29T05:24:51.424Z,100405.22
2022-10-29T05:25:22.935Z,100405.75
2022-10-29T05:25:55.119Z,100400.69
2022-10-29T05:26:26.671Z,100407.75
2022-10-29T05:26:58.227Z,100401.53
2022-10-29T05:27:29.782Z,100403.38
2022-10-29T05:28:07.055Z,100406.88
2022-10-29T05:28:38.645Z,100403.50
2022-10-29T05:29:10.206Z,100401.13
2022-10-29T05:29:41.787Z,100396.31
2022-10-29T05:30:13.345Z,100399.84
2022-10-29T05:30:45.027Z,100392.66
2022-10-29T05:31:16.597Z,100397.19
2022-10-29T05:31:48.102Z,100399.84
2022-10-29T05:32:19.649Z,100396.31
2022-10-29T05:32:51.212Z,100397.03
2022-10-29T05:33:23.384Z,100397.19
2022-10-29T05:33:56.012Z,100400.84
2022-10-29T05:34:27.876Z,100400.84
2022-10-29T05:34:59.393Z,100390.97
2022-10-29T05:35:30.919Z,100393.50
2022-10-29T05:36:02.522Z,100393.78
2022-10-29T05:36:34.089Z,100394.50
2022-10-29T05:37:05.664Z,100384.91
2022-10-29T05:37:37.173Z,100390.97
2022-10-29T05:38:09.124Z,100393.50
2022-10-29T05:38:40.610Z,100397.19
2022-10-29T05:39:12.197Z,100389.84
2022-10-29T05:39:43.900Z,100396.03
2022-10-29T05:40:15.478Z,100397.19
2022-10-29T05:40:47.034Z,100394.34
2022-10-29T05:41:18.657Z,100393.34
2022-10-29T05:41:50.202Z,100393.50
2022-10-29T05:42:21.745Z,100384.50
2022-10-29T05:42:53.357Z,100388.13
2022-10-29T05:43:24.960Z,100387.03
2022-10-29T05:43:56.583Z,100382.78
2022-10-29T05:44:28.218Z,100377.59
2022-10-29T05:45:00.097Z,100382.78
2022-10-29T05:45:31.684Z,100381.41
2022-10-29T05:46:03.731Z,100377.59
2022-10-29T05:46:35.315Z,100374.06
2022-10-29T05:47:06.873Z,100385.59
2022-10-29T05:47:38.415Z,100376.47
2022-10-29T05:48:10.161Z,100381.97
2022-10-29T05:48:41.742Z,100386.47
2022-10-29T05:49:13.469Z,100389.28
2022-10-29T05:49:45.005Z,100391.81
2022-10-29T05:50:16.788Z,100390.13
2022-10-29T05:50:48.311Z,100389.44
2022-10-29T05:51:19.775Z,100393.91
2022-10-29T05:51:51.271Z,100397.31
2022-10-29T05:52:22.815Z,100409.00
2022-10-29T05:52:55.204Z,100400.84
2022-10-29T05:53:26.962Z,100405.50
2022-10-29T05:53:58.496Z,100408.16
2022-10-29T05:54:30.030Z,100399.41
2022-10-29T05:55:01.561Z,100406.47
2022-10-29T05:55:33.823Z,100403.50
2022-10-29T05:56:05.550Z,100410.84
2022-10-29T05:56:37.140Z,100407.31
2022-10-29T05:57:08.721Z,100411.13
2022-10-29T05:57:40.282Z,100415.78
2022-10-29T05:58:13.060Z,100411.41
2022-10-29T05:58:44.631Z,100417.44
2022-10-29T05:59:16.192Z,100414.91
2022-10-29T05:59:47.856Z,100412.94
2022-10-29T06:00:19.461Z,100418.28
2022-10-29T06:00:51.072Z,100411.13
2022-10-29T06:01:22.719Z,100417.44
2022-10-29T06:01:54.542Z,100412.09
2022-10-29T06:02:26.330Z,100412.09
2022-10-29T06:02:58.307Z,100412.94
2022-10-29T06:03:30.240Z,100411.13
2022-10-29T06:04:01.786Z,100411.13
2022-10-29T06:04:34.129Z,100400.28
2022-10-29T06:05:05.836Z,100410.25
2022-10-29T06:05:37.297Z,100405.91
2022-10-29T06:06:08.959Z,100410.44
2022-10-29T06:06:40.649Z,100407.91
2022-10-29T06:07:12.239Z,100405.91
2022-10-29T06:07:43.835Z,100400.84
2022-10-29T06:08:15.405Z,100416.75
2022-10-29T06:08:46.984Z,100411.28
2022-10-29T06:09:18.522Z,100414.91
2022-10-29T06:09:50.055Z,100409.72
2022-10-29T06:10:21.705Z,100413.41
2022-10-29T06:10:53.270Z,100411.56
2022-10-29T06:11:24.870Z,100415.78
2022-10-29T06:11:56.430Z,100412.25
2022-10-29T06:12:34.684Z,100420.13
2022-10-29T06:13:13.160Z,100415.78
2022-10-29T06:13:44.639Z,100416.47
2022-10-29T06:14:16.188Z,100419.16
2022-10-29T06:14:47.641Z,100413.66
2022-10-29T06:15:19.275Z,100418.28
2022-10-29T06:15:50.838Z,100412.09
2022-10-29T06:16:22.373Z,100407.44
2022-10-29T06:16:53.913Z,100412.78
2022-10-29T06:17:25.484Z,100412.66
2022-10-29T06:17:57.433Z,100418.16
2022-10-29T06:18:29.350Z,100412.09
2022-10-29T06:19:00.853Z,100412.78
2022-10-29T06:19:32.456Z,100414.63
2022-10-29T06:20:04.095Z,100411.13
2022-10-29T06:20:35.917Z,100412.78